sensor_id;sensor_type;location;lat;lon;timestamp;P1;durP1;ratioP1;P2;durP2;ratioP2
75912;SDS011;64592;52.168;21.040;2023-03-17T00:02:30;27.48;;;14.05;;
75912;SDS011;64592;52.168;21.040;2023-03-17T00:07:33;30.73;;;13.45;;
75912;SDS011;64592;52.168;21.040;2023-03-17T00:12:35;26.25;;;12.85;;
75912;SDS011;64592;52.168;21.040;2023-03-17T00:17:36;22.80;;;13.18;;
75912;SDS011;64592;52.168;21.040;2023-03-17T00:22:39;25.30;;;14.38;;
75912;SDS011;64592;52.168;21.040;2023-03-17T00:27:41;25.17;;;13.10;;
75912;SDS011;64592;52.168;21.040;2023-03-17T00:32:43;31.00;;;13.75;;
75912;SDS011;64592;52.168;21.040;2023-03-17T00:37:47;23.67;;;12.57;;
75912;SDS011;64592;52.168;21.040;2023-03-17T00:42:50;29.50;;;14.35;;
75912;SDS011;64592;52.168;21.040;2023-03-17T00:47:53;33.92;;;15.80;;
75912;SDS011;64592;52.168;21.040;2023-03-17T00:52:57;33.75;;;14.65;;
75912;SDS011;64592;52.168;21.040;2023-03-17T00:58:01;27.65;;;14.15;;
75912;SDS011;64592;52.168;21.040;2023-03-17T01:03:03;32.40;;;16.05;;
75912;SDS011;64592;52.168;21.040;2023-03-17T01:08:07;25.60;;;13.50;;
75912;SDS011;64592;52.168;21.040;2023-03-17T01:13:09;34.33;;;14.80;;
75912;SDS011;64592;52.168;21.040;2023-03-17T01:18:13;29.67;;;15.25;;
75912;SDS011;64592;52.168;21.040;2023-03-17T01:23:18;38.03;;;16.08;;
75912;SDS011;64592;52.168;21.040;2023-03-17T01:28:21;31.00;;;15.55;;
75912;SDS011;64592;52.168;21.040;2023-03-17T01:33:23;26.98;;;13.68;;
75912;SDS011;64592;52.168;21.040;2023-03-17T01:38:27;27.58;;;12.68;;
75912;SDS011;64592;52.168;21.040;2023-03-17T01:43:29;30.30;;;14.15;;
75912;SDS011;64592;52.168;21.040;2023-03-17T01:48:33;36.50;;;16.75;;
75912;SDS011;64592;52.168;21.040;2023-03-17T01:53:39;28.27;;;16.35;;
75912;SDS011;64592;52.168;21.040;2023-03-17T01:58:41;33.85;;;17.98;;
75912;SDS011;64592;52.168;21.040;2023-03-17T02:03:45;37.28;;;18.90;;
75912;SDS011;64592;52.168;21.040;2023-03-17T02:08:49;38.03;;;19.83;;
75912;SDS011;64592;52.168;21.040;2023-03-17T02:13:52;41.85;;;19.45;;
75912;SDS011;64592;52.168;21.040;2023-03-17T02:18:54;35.47;;;18.63;;
75912;SDS011;64592;52.168;21.040;2023-03-17T02:23:57;40.50;;;20.60;;
75912;SDS011;64592;52.168;21.040;2023-03-17T02:29:01;44.00;;;21.10;;
75912;SDS011;64592;52.168;21.040;2023-03-17T02:34:04;46.13;;;20.10;;
75912;SDS011;64592;52.168;21.040;2023-03-17T02:39:08;43.83;;;19.83;;
75912;SDS011;64592;52.168;21.040;2023-03-17T02:44:10;46.70;;;19.95;;
75912;SDS011;64592;52.168;21.040;2023-03-17T02:49:12;40.90;;;21.65;;
75912;SDS011;64592;52.168;21.040;2023-03-17T02:54:15;42.45;;;19.85;;
75912;SDS011;64592;52.168;21.040;2023-03-17T02:59:17;42.95;;;19.20;;
75912;SDS011;64592;52.168;21.040;2023-03-17T03:04:19;44.10;;;21.10;;
75912;SDS011;64592;52.168;21.040;2023-03-17T03:09:22;40.67;;;20.30;;
75912;SDS011;64592;52.168;21.040;2023-03-17T03:14:24;42.13;;;21.75;;
75912;SDS011;64592;52.168;21.040;2023-03-17T03:19:26;56.00;;;22.38;;
75912;SDS011;64592;52.168;21.040;2023-03-17T03:24:30;46.13;;;21.58;;
75912;SDS011;64592;52.168;21.040;2023-03-17T03:29:31;42.72;;;21.42;;
75912;SDS011;64592;52.168;21.040;2023-03-17T03:34:33;49.13;;;24.63;;
75912;SDS011;64592;52.168;21.040;2023-03-17T03:39:36;46.65;;;21.60;;
75912;SDS011;64592;52.168;21.040;2023-03-17T03:44:38;55.70;;;23.08;;
75912;SDS011;64592;52.168;21.040;2023-03-17T03:49:39;45.70;;;22.98;;
75912;SDS011;64592;52.168;21.040;2023-03-17T03:54:43;49.25;;;23.80;;
75912;SDS011;64592;52.168;21.040;2023-03-17T03:59:44;52.83;;;22.55;;
75912;SDS011;64592;52.168;21.040;2023-03-17T04:04:46;49.40;;;24.65;;
75912;SDS011;64592;52.168;21.040;2023-03-17T04:09:49;53.65;;;23.05;;
75912;SDS011;64592;52.168;21.040;2023-03-17T04:14:51;48.88;;;22.35;;
75912;SDS011;64592;52.168;21.040;2023-03-17T04:19:53;49.30;;;21.45;;
75912;SDS011;64592;52.168;21.040;2023-03-17T04:24:56;47.88;;;21.42;;
75912;SDS011;64592;52.168;21.040;2023-03-17T04:29:58;40.00;;;19.92;;
75912;SDS011;64592;52.168;21.040;2023-03-17T04:35:00;57.00;;;24.83;;
75912;SDS011;64592;52.168;21.040;2023-03-17T04:40:04;40.60;;;20.10;;
75912;SDS011;64592;52.168;21.040;2023-03-17T04:45:08;44.92;;;21.17;;
75912;SDS011;64592;52.168;21.040;2023-03-17T04:50:11;47.50;;;22.33;;
75912;SDS011;64592;52.168;21.040;2023-03-17T04:55:15;46.00;;;20.65;;
75912;SDS011;64592;52.168;21.040;2023-03-17T05:00:17;44.83;;;21.50;;
75912;SDS011;64592;52.168;21.040;2023-03-17T05:05:20;38.58;;;18.77;;
75912;SDS011;64592;52.168;21.040;2023-03-17T05:10:23;55.10;;;23.35;;
75912;SDS011;64592;52.168;21.040;2023-03-17T05:15:25;43.72;;;20.17;;
75912;SDS011;64592;52.168;21.040;2023-03-17T05:20:27;36.75;;;19.48;;
75912;SDS011;64592;52.168;21.040;2023-03-17T05:25:30;46.85;;;22.63;;
75912;SDS011;64592;52.168;21.040;2023-03-17T05:30:32;49.10;;;21.27;;
75912;SDS011;64592;52.168;21.040;2023-03-17T05:35:35;33.60;;;19.35;;
75912;SDS011;64592;52.168;21.040;2023-03-17T05:40:38;41.80;;;19.73;;
75912;SDS011;64592;52.168;21.040;2023-03-17T05:45:40;45.40;;;20.73;;
75912;SDS011;64592;52.168;21.040;2023-03-17T05:50:42;43.25;;;20.88;;
75912;SDS011;64592;52.168;21.040;2023-03-17T05:55:45;40.45;;;20.35;;
75912;SDS011;64592;52.168;21.040;2023-03-17T06:00:47;46.92;;;20.30;;
75912;SDS011;64592;52.168;21.040;2023-03-17T06:05:48;48.13;;;20.33;;
75912;SDS011;64592;52.168;21.040;2023-03-17T06:10:52;46.47;;;20.42;;
75912;SDS011;64592;52.168;21.040;2023-03-17T06:15:53;48.50;;;22.20;;
75912;SDS011;64592;52.168;21.040;2023-03-17T06:20:56;47.65;;;21.80;;
75912;SDS011;64592;52.168;21.040;2023-03-17T06:25:59;43.50;;;20.88;;
75912;SDS011;64592;52.168;21.040;2023-03-17T06:31:01;45.78;;;21.25;;
75912;SDS011;64592;52.168;21.040;2023-03-17T06:36:03;39.65;;;19.77;;
75912;SDS011;64592;52.168;21.040;2023-03-17T06:41:06;34.97;;;15.88;;
75912;SDS011;64592;52.168;21.040;2023-03-17T06:46:08;40.78;;;18.48;;
75912;SDS011;64592;52.168;21.040;2023-03-17T06:51:10;36.55;;;18.63;;
75912;SDS011;64592;52.168;21.040;2023-03-17T06:56:13;32.60;;;16.88;;
75912;SDS011;64592;52.168;21.040;2023-03-17T07:01:15;35.95;;;17.70;;
75912;SDS011;64592;52.168;21.040;2023-03-17T07:06:18;29.35;;;15.80;;
75912;SDS011;64592;52.168;21.040;2023-03-17T07:11:21;35.35;;;18.08;;
75912;SDS011;64592;52.168;21.040;2023-03-17T07:16:23;34.70;;;17.40;;
75912;SDS011;64592;52.168;21.040;2023-03-17T07:21:25;35.00;;;16.85;;
75912;SDS011;64592;52.168;21.040;2023-03-17T07:26:28;33.40;;;16.20;;
75912;SDS011;64592;52.168;21.040;2023-03-17T07:31:30;31.20;;;17.33;;
75912;SDS011;64592;52.168;21.040;2023-03-17T07:36:32;35.20;;;17.88;;
75912;SDS011;64592;52.168;21.040;2023-03-17T07:41:36;33.60;;;15.90;;
75912;SDS011;64592;52.168;21.040;2023-03-17T07:46:38;33.88;;;17.77;;
75912;SDS011;64592;52.168;21.040;2023-03-17T07:51:40;27.17;;;13.05;;
75912;SDS011;64592;52.168;21.040;2023-03-17T07:56:43;28.33;;;14.90;;
75912;SDS011;64592;52.168;21.040;2023-03-17T08:01:45;37.25;;;14.90;;
75912;SDS011;64592;52.168;21.040;2023-03-17T08:06:47;28.50;;;14.90;;
75912;SDS011;64592;52.168;21.040;2023-03-17T08:11:50;25.85;;;11.75;;
75912;SDS011;64592;52.168;21.040;2023-03-17T08:16:52;22.35;;;12.05;;
75912;SDS011;64592;52.168;21.040;2023-03-17T08:21:54;18.55;;;10.82;;
75912;SDS011;64592;52.168;21.040;2023-03-17T08:26:57;20.50;;;10.00;;
75912;SDS011;64592;52.168;21.040;2023-03-17T08:31:59;21.80;;;11.40;;
75912;SDS011;64592;52.168;21.040;2023-03-17T08:37:01;22.90;;;10.27;;
75912;SDS011;64592;52.168;21.040;2023-03-17T08:42:04;23.80;;;11.32;;
75912;SDS011;64592;52.168;21.040;2023-03-17T08:47:06;23.05;;;11.00;;
75912;SDS011;64592;52.168;21.040;2023-03-17T08:52:08;16.50;;;7.40;;
75912;SDS011;64592;52.168;21.040;2023-03-17T08:57:11;13.38;;;5.97;;
75912;SDS011;64592;52.168;21.040;2023-03-17T09:02:13;8.10;;;4.05;;
75912;SDS011;64592;52.168;21.040;2023-03-17T09:07:15;12.02;;;5.45;;
75912;SDS011;64592;52.168;21.040;2023-03-17T09:12:18;12.15;;;6.32;;
75912;SDS011;64592;52.168;21.040;2023-03-17T09:17:19;9.20;;;5.38;;
75912;SDS011;64592;52.168;21.040;2023-03-17T09:22:21;9.40;;;5.60;;
75912;SDS011;64592;52.168;21.040;2023-03-17T09:27:24;8.00;;;5.40;;
75912;SDS011;64592;52.168;21.040;2023-03-17T09:32:26;8.40;;;4.38;;
75912;SDS011;64592;52.168;21.040;2023-03-17T09:37:28;9.80;;;5.45;;
75912;SDS011;64592;52.168;21.040;2023-03-17T09:42:37;9.48;;;4.85;;
75912;SDS011;64592;52.168;21.040;2023-03-17T09:47:48;12.02;;;5.93;;
75912;SDS011;64592;52.168;21.040;2023-03-17T09:52:55;9.23;;;4.22;;
75912;SDS011;64592;52.168;21.040;2023-03-17T09:57:59;6.63;;;4.40;;
75912;SDS011;64592;52.168;21.040;2023-03-17T10:03:02;6.55;;;4.03;;
75912;SDS011;64592;52.168;21.040;2023-03-17T10:08:08;7.03;;;4.43;;
75912;SDS011;64592;52.168;21.040;2023-03-17T10:18:48;8.07;;;4.47;;
75912;SDS011;64592;52.168;21.040;2023-03-17T10:23:53;8.57;;;5.43;;
75912;SDS011;64592;52.168;21.040;2023-03-17T10:28:57;7.95;;;4.47;;
75912;SDS011;64592;52.168;21.040;2023-03-17T10:34:10;6.55;;;4.70;;
75912;SDS011;64592;52.168;21.040;2023-03-17T10:39:15;10.15;;;4.80;;
75912;SDS011;64592;52.168;21.040;2023-03-17T10:44:22;9.13;;;5.03;;
75912;SDS011;64592;52.168;21.040;2023-03-17T10:49:35;10.45;;;4.63;;
75912;SDS011;64592;52.168;21.040;2023-03-17T10:54:37;9.50;;;5.43;;
75912;SDS011;64592;52.168;21.040;2023-03-17T10:59:42;9.43;;;4.97;;
75912;SDS011;64592;52.168;21.040;2023-03-17T11:04:48;7.38;;;4.53;;
75912;SDS011;64592;52.168;21.040;2023-03-17T11:09:50;7.50;;;4.38;;
75912;SDS011;64592;52.168;21.040;2023-03-17T11:14:58;7.53;;;4.47;;
75912;SDS011;64592;52.168;21.040;2023-03-17T11:20:05;11.93;;;5.80;;
75912;SDS011;64592;52.168;21.040;2023-03-17T11:25:16;9.70;;;5.40;;
75912;SDS011;64592;52.168;21.040;2023-03-17T11:30:23;13.77;;;6.05;;
75912;SDS011;64592;52.168;21.040;2023-03-17T11:35:35;9.13;;;4.90;;
75912;SDS011;64592;52.168;21.040;2023-03-17T11:40:46;9.23;;;5.30;;
75912;SDS011;64592;52.168;21.040;2023-03-17T11:46:02;11.00;;;5.70;;
75912;SDS011;64592;52.168;21.040;2023-03-17T11:51:11;10.20;;;6.38;;
75912;SDS011;64592;52.168;21.040;2023-03-17T11:56:22;12.90;;;5.47;;
75912;SDS011;64592;52.168;21.040;2023-03-17T12:01:34;10.15;;;4.65;;
75912;SDS011;64592;52.168;21.040;2023-03-17T12:06:45;9.70;;;6.45;;
75912;SDS011;64592;52.168;21.040;2023-03-17T12:16:56;15.32;;;6.28;;
75912;SDS011;64592;52.168;21.040;2023-03-17T12:22:05;12.75;;;6.43;;
75912;SDS011;64592;52.168;21.040;2023-03-17T12:27:13;11.85;;;6.65;;
75912;SDS011;64592;52.168;21.040;2023-03-17T12:32:23;10.70;;;6.50;;
75912;SDS011;64592;52.168;21.040;2023-03-17T12:37:29;12.05;;;6.20;;
75912;SDS011;64592;52.168;21.040;2023-03-17T12:42:35;10.73;;;6.43;;
75912;SDS011;64592;52.168;21.040;2023-03-17T12:47:42;9.50;;;5.68;;
75912;SDS011;64592;52.168;21.040;2023-03-17T12:53:06;13.52;;;6.90;;
75912;SDS011;64592;52.168;21.040;2023-03-17T12:58:25;10.25;;;5.50;;
75912;SDS011;64592;52.168;21.040;2023-03-17T13:03:33;11.80;;;5.40;;
75912;SDS011;64592;52.168;21.040;2023-03-17T13:08:38;10.48;;;5.07;;
75912;SDS011;64592;52.168;21.040;2023-03-17T13:13:43;8.35;;;4.57;;
75912;SDS011;64592;52.168;21.040;2023-03-17T13:18:49;9.95;;;4.60;;
75912;SDS011;64592;52.168;21.040;2023-03-17T13:23:53;9.57;;;5.05;;
75912;SDS011;64592;52.168;21.040;2023-03-17T13:28:57;9.80;;;5.05;;
75912;SDS011;64592;52.168;21.040;2023-03-17T13:34:11;6.65;;;4.97;;
75912;SDS011;64592;52.168;21.040;2023-03-17T13:39:18;12.18;;;6.18;;
75912;SDS011;64592;52.168;21.040;2023-03-17T13:44:33;9.38;;;4.93;;
75912;SDS011;64592;52.168;21.040;2023-03-17T13:49:46;10.85;;;5.88;;
75912;SDS011;64592;52.168;21.040;2023-03-17T13:54:58;12.10;;;6.35;;
75912;SDS011;64592;52.168;21.040;2023-03-17T14:00:16;15.00;;;7.05;;
75912;SDS011;64592;52.168;21.040;2023-03-17T14:05:25;11.73;;;6.55;;
75912;SDS011;64592;52.168;21.040;2023-03-17T14:10:30;12.68;;;6.15;;
75912;SDS011;64592;52.168;21.040;2023-03-17T14:15:33;12.82;;;5.82;;
75912;SDS011;64592;52.168;21.040;2023-03-17T14:20:52;10.23;;;6.03;;
75912;SDS011;64592;52.168;21.040;2023-03-17T14:25:55;12.07;;;6.38;;
75912;SDS011;64592;52.168;21.040;2023-03-17T14:30:59;12.00;;;6.68;;
75912;SDS011;64592;52.168;21.040;2023-03-17T14:36:05;10.80;;;6.10;;
75912;SDS011;64592;52.168;21.040;2023-03-17T14:41:15;9.88;;;5.80;;
75912;SDS011;64592;52.168;21.040;2023-03-17T14:46:20;11.98;;;5.35;;
75912;SDS011;64592;52.168;21.040;2023-03-17T14:51:25;10.00;;;5.72;;
75912;SDS011;64592;52.168;21.040;2023-03-17T14:56:30;13.10;;;6.50;;
75912;SDS011;64592;52.168;21.040;2023-03-17T15:01:36;14.40;;;6.57;;
75912;SDS011;64592;52.168;21.040;2023-03-17T15:06:47;9.23;;;5.38;;
75912;SDS011;64592;52.168;21.040;2023-03-17T15:11:51;12.20;;;5.43;;
75912;SDS011;64592;52.168;21.040;2023-03-17T15:16:55;8.35;;;5.35;;
75912;SDS011;64592;52.168;21.040;2023-03-17T15:21:58;10.75;;;4.85;;
75912;SDS011;64592;52.168;21.040;2023-03-17T15:27:09;9.48;;;5.20;;
75912;SDS011;64592;52.168;21.040;2023-03-17T15:32:16;10.88;;;5.00;;
75912;SDS011;64592;52.168;21.040;2023-03-17T15:37:21;12.65;;;5.70;;
75912;SDS011;64592;52.168;21.040;2023-03-17T15:42:25;10.00;;;5.32;;
75912;SDS011;64592;52.168;21.040;2023-03-17T15:47:29;9.45;;;4.60;;
75912;SDS011;64592;52.168;21.040;2023-03-17T15:52:34;8.90;;;4.90;;
75912;SDS011;64592;52.168;21.040;2023-03-17T15:57:36;11.43;;;5.47;;
75912;SDS011;64592;52.168;21.040;2023-03-17T16:02:38;9.80;;;4.88;;
75912;SDS011;64592;52.168;21.040;2023-03-17T16:07:41;8.40;;;4.88;;
75912;SDS011;64592;52.168;21.040;2023-03-17T16:12:42;12.10;;;5.60;;
75912;SDS011;64592;52.168;21.040;2023-03-17T16:17:44;10.18;;;5.20;;
75912;SDS011;64592;52.168;21.040;2023-03-17T16:22:49;11.45;;;5.65;;
75912;SDS011;64592;52.168;21.040;2023-03-17T16:27:53;12.57;;;6.20;;
75912;SDS011;64592;52.168;21.040;2023-03-17T16:32:56;12.30;;;5.53;;
75912;SDS011;64592;52.168;21.040;2023-03-17T16:38:02;9.88;;;4.70;;
75912;SDS011;64592;52.168;21.040;2023-03-17T16:43:11;11.88;;;4.68;;
75912;SDS011;64592;52.168;21.040;2023-03-17T16:48:18;13.48;;;5.32;;
75912;SDS011;64592;52.168;21.040;2023-03-17T16:53:21;9.38;;;5.15;;
75912;SDS011;64592;52.168;21.040;2023-03-17T16:58:23;11.45;;;6.10;;
75912;SDS011;64592;52.168;21.040;2023-03-17T17:03:26;11.32;;;5.50;;
75912;SDS011;64592;52.168;21.040;2023-03-17T17:08:30;11.68;;;5.20;;
75912;SDS011;64592;52.168;21.040;2023-03-17T17:13:32;10.20;;;5.50;;
75912;SDS011;64592;52.168;21.040;2023-03-17T17:18:33;11.75;;;5.38;;
75912;SDS011;64592;52.168;21.040;2023-03-17T17:23:37;9.25;;;5.57;;
75912;SDS011;64592;52.168;21.040;2023-03-17T17:28:39;10.85;;;5.78;;
75912;SDS011;64592;52.168;21.040;2023-03-17T17:33:41;12.38;;;5.72;;
75912;SDS011;64592;52.168;21.040;2023-03-17T17:38:44;10.00;;;6.15;;
75912;SDS011;64592;52.168;21.040;2023-03-17T17:43:46;14.57;;;6.95;;
75912;SDS011;64592;52.168;21.040;2023-03-17T17:48:49;14.50;;;8.05;;
75912;SDS011;64592;52.168;21.040;2023-03-17T17:53:52;12.60;;;6.32;;
75912;SDS011;64592;52.168;21.040;2023-03-17T17:58:53;8.82;;;5.68;;
75912;SDS011;64592;52.168;21.040;2023-03-17T18:03:55;13.30;;;6.75;;
75912;SDS011;64592;52.168;21.040;2023-03-17T18:08:59;12.93;;;6.07;;
75912;SDS011;64592;52.168;21.040;2023-03-17T18:14:01;13.95;;;6.30;;
75912;SDS011;64592;52.168;21.040;2023-03-17T18:19:03;15.23;;;7.10;;
75912;SDS011;64592;52.168;21.040;2023-03-17T18:24:08;15.18;;;6.68;;
75912;SDS011;64592;52.168;21.040;2023-03-17T18:29:10;12.93;;;7.00;;
75912;SDS011;64592;52.168;21.040;2023-03-17T18:34:13;16.73;;;7.13;;
75912;SDS011;64592;52.168;21.040;2023-03-17T18:39:20;15.05;;;7.45;;
75912;SDS011;64592;52.168;21.040;2023-03-17T18:44:22;23.55;;;7.22;;
75912;SDS011;64592;52.168;21.040;2023-03-17T18:49:24;10.98;;;6.13;;
75912;SDS011;64592;52.168;21.040;2023-03-17T18:54:28;13.88;;;6.97;;
75912;SDS011;64592;52.168;21.040;2023-03-17T18:59:30;12.43;;;6.88;;
75912;SDS011;64592;52.168;21.040;2023-03-17T19:04:32;14.63;;;7.32;;
75912;SDS011;64592;52.168;21.040;2023-03-17T19:09:35;20.23;;;7.68;;
75912;SDS011;64592;52.168;21.040;2023-03-17T19:14:38;14.02;;;7.13;;
75912;SDS011;64592;52.168;21.040;2023-03-17T19:19:40;14.25;;;7.00;;
75912;SDS011;64592;52.168;21.040;2023-03-17T19:24:43;15.50;;;7.35;;
75912;SDS011;64592;52.168;21.040;2023-03-17T19:29:46;17.33;;;6.85;;
75912;SDS011;64592;52.168;21.040;2023-03-17T19:34:48;17.25;;;7.72;;
75912;SDS011;64592;52.168;21.040;2023-03-17T19:39:51;17.77;;;8.02;;
75912;SDS011;64592;52.168;21.040;2023-03-17T19:44:53;17.35;;;7.78;;
75912;SDS011;64592;52.168;21.040;2023-03-17T19:49:55;22.60;;;8.05;;
75912;SDS011;64592;52.168;21.040;2023-03-17T19:54:58;14.52;;;7.32;;
75912;SDS011;64592;52.168;21.040;2023-03-17T20:00:00;15.35;;;7.78;;
75912;SDS011;64592;52.168;21.040;2023-03-17T20:05:01;24.20;;;9.10;;
75912;SDS011;64592;52.168;21.040;2023-03-17T20:10:05;16.38;;;8.32;;
75912;SDS011;64592;52.168;21.040;2023-03-17T20:15:08;20.85;;;9.25;;
75912;SDS011;64592;52.168;21.040;2023-03-17T20:20:12;18.88;;;9.00;;
75912;SDS011;64592;52.168;21.040;2023-03-17T20:25:16;16.73;;;8.85;;
75912;SDS011;64592;52.168;21.040;2023-03-17T20:30:18;16.75;;;7.63;;
75912;SDS011;64592;52.168;21.040;2023-03-17T20:35:21;21.25;;;9.38;;
75912;SDS011;64592;52.168;21.040;2023-03-17T20:40:24;17.33;;;7.90;;
75912;SDS011;64592;52.168;21.040;2023-03-17T20:45:27;16.25;;;7.72;;
75912;SDS011;64592;52.168;21.040;2023-03-17T20:50:29;22.88;;;8.30;;
75912;SDS011;64592;52.168;21.040;2023-03-17T20:55:32;12.70;;;7.35;;
75912;SDS011;64592;52.168;21.040;2023-03-17T21:00:35;16.73;;;8.02;;
75912;SDS011;64592;52.168;21.040;2023-03-17T21:05:37;15.45;;;6.80;;
75912;SDS011;64592;52.168;21.040;2023-03-17T21:10:41;18.80;;;7.82;;
75912;SDS011;64592;52.168;21.040;2023-03-17T21:15:42;11.40;;;6.95;;
75912;SDS011;64592;52.168;21.040;2023-03-17T21:20:44;14.63;;;7.82;;
75912;SDS011;64592;52.168;21.040;2023-03-17T21:25:51;14.30;;;6.93;;
75912;SDS011;64592;52.168;21.040;2023-03-17T21:30:54;14.90;;;7.50;;
75912;SDS011;64592;52.168;21.040;2023-03-17T21:35:56;12.27;;;6.25;;
75912;SDS011;64592;52.168;21.040;2023-03-17T21:41:01;14.05;;;6.90;;
75912;SDS011;64592;52.168;21.040;2023-03-17T21:46:19;14.27;;;6.90;;
75912;SDS011;64592;52.168;21.040;2023-03-17T21:51:20;13.00;;;6.50;;
75912;SDS011;64592;52.168;21.040;2023-03-17T21:56:23;13.65;;;6.53;;
75912;SDS011;64592;52.168;21.040;2023-03-17T22:01:26;13.77;;;6.82;;
75912;SDS011;64592;52.168;21.040;2023-03-17T22:06:28;12.90;;;6.32;;
75912;SDS011;64592;52.168;21.040;2023-03-17T22:11:31;12.23;;;7.00;;
75912;SDS011;64592;52.168;21.040;2023-03-17T22:16:33;14.95;;;6.30;;
75912;SDS011;64592;52.168;21.040;2023-03-17T22:21:34;16.17;;;6.68;;
75912;SDS011;64592;52.168;21.040;2023-03-17T22:26:38;13.75;;;7.22;;
75912;SDS011;64592;52.168;21.040;2023-03-17T22:31:39;16.73;;;6.55;;
75912;SDS011;64592;52.168;21.040;2023-03-17T22:36:41;9.40;;;5.72;;
75912;SDS011;64592;52.168;21.040;2023-03-17T22:41:44;13.60;;;5.85;;
75912;SDS011;64592;52.168;21.040;2023-03-17T22:46:46;12.80;;;6.28;;
75912;SDS011;64592;52.168;21.040;2023-03-17T22:51:47;14.30;;;6.18;;
75912;SDS011;64592;52.168;21.040;2023-03-17T22:56:51;12.38;;;6.13;;
75912;SDS011;64592;52.168;21.040;2023-03-17T23:01:52;9.68;;;6.15;;
75912;SDS011;64592;52.168;21.040;2023-03-17T23:06:54;13.05;;;6.55;;
75912;SDS011;64592;52.168;21.040;2023-03-17T23:11:59;8.18;;;4.75;;
75912;SDS011;64592;52.168;21.040;2023-03-17T23:17:01;9.88;;;5.70;;
75912;SDS011;64592;52.168;21.040;2023-03-17T23:22:03;9.13;;;5.10;;
75912;SDS011;64592;52.168;21.040;2023-03-17T23:27:06;11.93;;;5.53;;
75912;SDS011;64592;52.168;21.040;2023-03-17T23:32:08;17.92;;;6.03;;
75912;SDS011;64592;52.168;21.040;2023-03-17T23:37:12;11.68;;;5.78;;
75912;SDS011;64592;52.168;21.040;2023-03-17T23:42:16;12.48;;;5.80;;
75912;SDS011;64592;52.168;21.040;2023-03-17T23:47:17;12.75;;;5.03;;
75912;SDS011;64592;52.168;21.040;2023-03-17T23:52:19;11.77;;;5.85;;
75912;SDS011;64592;52.168;21.040;2023-03-17T23:57:23;10.55;;;5.63;;
